createdAt,value
2023-03-22T00:01:15.199Z,10.50
2023-03-22T00:03:42.719Z,9.87
2023-03-22T00:06:10.554Z,11.17
2023-03-22T00:08:38.255Z,10.77
2023-03-22T00:11:06.304Z,9.67
2023-03-22T00:13:35.703Z,10.67
2023-03-22T00:16:03.176Z,10.17
2023-03-22T00:18:30.805Z,9.83
2023-03-22T00:20:59.156Z,9.30
2023-03-22T00:23:45.458Z,9.30
2023-03-22T00:26:14.403Z,9.13
2023-03-22T00:28:42.679Z,10.63
2023-03-22T00:31:10.683Z,10.43
2023-03-22T00:33:38.111Z,10.20
2023-03-22T00:36:06.968Z,9.93
2023-03-22T00:38:42.577Z,9.97
2023-03-22T00:41:11.007Z,9.83
2023-03-22T00:43:38.671Z,10.33
2023-03-22T00:46:06.599Z,9.90
2023-03-22T00:48:34.276Z,9.83
2023-03-22T00:51:01.741Z,9.33
2023-03-22T00:53:32.944Z,9.47
2023-03-22T00:56:00.835Z,9.83
2023-03-22T00:58:32.325Z,9.30
2023-03-22T01:00:59.662Z,9.17
2023-03-22T01:03:27.764Z,9.50
2023-03-22T01:06:13.617Z,9.50
2023-03-22T01:08:41.094Z,10.17
2023-03-22T01:11:09.496Z,10.23
2023-03-22T01:13:37.751Z,9.83
2023-03-22T01:16:05.980Z,9.83
2023-03-22T01:18:34.148Z,9.83
2023-03-22T01:21:02.553Z,9.97
2023-03-22T01:23:30.694Z,9.53
2023-03-22T01:25:58.061Z,9.93
2023-03-22T01:28:27.152Z,9.73
2023-03-22T01:30:55.152Z,9.30
2023-03-22T01:33:22.552Z,9.57
2023-03-22T01:35:50.983Z,9.77
2023-03-22T01:38:18.385Z,9.87
2023-03-22T01:40:57.381Z,10.57
2023-03-22T01:43:25.620Z,9.97
2023-03-22T01:45:54.463Z,10.93
2023-03-22T01:48:35.752Z,11.50
2023-03-22T01:51:07.246Z,11.13
2023-03-22T01:53:42.589Z,10.87
2023-03-22T01:56:11.194Z,10.60
2023-03-22T01:58:38.872Z,10.93
2023-03-22T02:01:09.372Z,10.47
2023-03-22T02:03:44.791Z,10.73
2023-03-22T02:06:13.458Z,10.30
2023-03-22T02:08:40.914Z,11.40
2023-03-22T02:11:22.344Z,10.30
2023-03-22T02:13:59.478Z,9.90
2023-03-22T02:17:05.620Z,10.50
2023-03-22T02:20:04.548Z,11.43
2023-03-22T02:22:41.711Z,10.73
2023-03-22T02:25:35.561Z,10.50
2023-03-22T02:28:09.067Z,10.87
2023-03-22T02:30:36.570Z,10.33
2023-03-22T02:33:09.904Z,10.77
2023-03-22T02:35:55.927Z,9.63
2023-03-22T02:38:42.637Z,10.53
2023-03-22T02:41:12.833Z,8.90
2023-03-22T02:43:49.255Z,8.40
2023-03-22T02:46:23.032Z,8.43
2023-03-22T02:49:09.278Z,9.20
2023-03-22T02:51:55.453Z,6.70
2023-03-22T02:54:29.711Z,8.13
2023-03-22T02:57:03.620Z,7.93
2023-03-22T02:59:31.763Z,7.63
2023-03-22T03:02:01.490Z,6.90
2023-03-22T03:04:33.822Z,7.40
2023-03-22T03:07:03.952Z,7.80
2023-03-22T03:09:32.526Z,6.77
2023-03-22T03:12:00.770Z,7.47
2023-03-22T03:14:32.113Z,6.60
2023-03-22T03:17:13.960Z,6.50
2023-03-22T03:19:43.912Z,6.30
2023-03-22T03:22:29.872Z,6.67
2023-03-22T03:25:10.414Z,7.40
2023-03-22T03:27:41.526Z,7.13
2023-03-22T03:30:14.234Z,6.90
2023-03-22T03:32:48.750Z,7.17
2023-03-22T03:35:42.168Z,7.37
2023-03-22T03:38:14.723Z,6.93
2023-03-22T03:40:45.587Z,7.27
2023-03-22T03:43:13.514Z,7.30
2023-03-22T03:45:40.951Z,7.20
2023-03-22T03:48:19.865Z,7.00
2023-03-22T03:50:48.296Z,7.23
2023-03-22T03:53:15.692Z,6.40
2023-03-22T03:55:43.076Z,7.10
2023-03-22T03:58:10.604Z,8.33
2023-03-22T04:00:38.632Z,8.10
2023-03-22T04:03:15.261Z,8.47
2023-03-22T04:06:05.633Z,9.40
2023-03-22T04:08:37.556Z,9.27
2023-03-22T04:11:05.537Z,10.20
2023-03-22T04:13:32.859Z,10.70
2023-03-22T04:16:03.681Z,9.83
2023-03-22T04:18:34.964Z,10.20
2023-03-22T04:21:06.446Z,10.60
2023-03-22T04:23:41.826Z,9.67
2023-03-22T04:26:09.071Z,9.73
2023-03-22T04:28:50.996Z,9.37
2023-03-22T04:31:18.542Z,9.20
2023-03-22T04:33:57.939Z,9.73
2023-03-22T04:36:42.769Z,8.03
2023-03-22T04:39:23.049Z,7.83
2023-03-22T04:42:00.846Z,8.20
2023-03-22T04:44:28.394Z,8.63
2023-03-22T04:46:55.970Z,7.87
2023-03-22T04:49:23.380Z,7.87
2023-03-22T04:51:51.829Z,7.47
2023-03-22T04:54:29.037Z,8.03
2023-03-22T04:59:46.573Z,6.93
2023-03-22T05:02:14.749Z,6.93
2023-03-22T05:04:43.914Z,6.50
2023-03-22T05:07:30.921Z,6.47
2023-03-22T05:10:00.454Z,6.10
2023-03-22T05:12:28.583Z,6.37
2023-03-22T05:15:18.579Z,6.83
2023-03-22T05:17:48.397Z,5.67
2023-03-22T05:20:15.953Z,5.97
2023-03-22T05:22:50.539Z,5.60
2023-03-22T05:25:19.311Z,6.20
2023-03-22T05:27:50.112Z,5.50
2023-03-22T05:30:37.858Z,5.53
2023-03-22T05:33:21.896Z,5.30
2023-03-22T05:35:52.803Z,5.53
2023-03-22T05:38:22.799Z,5.67
2023-03-22T05:40:52.515Z,6.03
2023-03-22T05:43:19.784Z,5.40
2023-03-22T05:45:51.240Z,5.90
2023-03-22T05:48:35.925Z,6.13
2023-03-22T05:51:07.307Z,5.50
2023-03-22T05:53:34.931Z,4.90
2023-03-22T05:56:15.196Z,8.73
2023-03-22T05:58:44.870Z,5.43
2023-03-22T06:01:16.977Z,5.47
2023-03-22T06:03:48.369Z,5.43
2023-03-22T06:06:28.116Z,5.50
2023-03-22T06:09:16.410Z,5.43
2023-03-22T06:11:45.743Z,5.90
2023-03-22T06:14:17.398Z,5.33
2023-03-22T06:17:07.427Z,5.30
2023-03-22T06:19:35.339Z,6.17
2023-03-22T06:22:05.076Z,5.33
2023-03-22T06:24:35.144Z,5.80
2023-03-22T06:27:04.460Z,6.13
2023-03-22T06:29:32.382Z,5.30
2023-03-22T06:32:02.692Z,6.83
2023-03-22T06:34:31.744Z,6.90
2023-03-22T06:36:59.354Z,7.93
2023-03-22T06:39:35.679Z,6.00
2023-03-22T06:42:03.558Z,6.23
2023-03-22T06:44:31.140Z,5.57
2023-03-22T06:47:18.677Z,5.80
2023-03-22T06:50:05.573Z,5.20
2023-03-22T06:52:59.055Z,5.67
2023-03-22T06:55:26.458Z,6.27
2023-03-22T06:57:54.944Z,5.83
2023-03-22T07:00:22.492Z,5.93
2023-03-22T07:02:52.575Z,5.57
2023-03-22T07:05:28.646Z,5.47
2023-03-22T07:07:56.021Z,5.70
2023-03-22T07:10:23.599Z,5.60
2023-03-22T07:12:50.834Z,5.73
2023-03-22T07:15:18.778Z,5.97
2023-03-22T07:17:54.662Z,6.13
2023-03-22T07:20:22.229Z,5.97
2023-03-22T07:22:50.859Z,6.20
2023-03-22T07:25:20.399Z,5.67
2023-03-22T07:27:51.201Z,5.87
2023-03-22T07:30:22.807Z,5.43
2023-03-22T07:32:50.338Z,6.10
2023-03-22T07:35:19.605Z,6.40
2023-03-22T07:37:48.769Z,5.80
2023-03-22T07:40:23.041Z,5.97
2023-03-22T07:42:55.418Z,4.90
2023-03-22T07:45:37.097Z,5.53
2023-03-22T07:48:23.582Z,5.80
2023-03-22T07:51:03.330Z,5.73
2023-03-22T07:53:30.666Z,5.77
2023-03-22T07:55:58.005Z,5.33
2023-03-22T07:58:26.925Z,5.20
2023-03-22T08:00:55.355Z,5.40
2023-03-22T08:03:45.642Z,5.83
2023-03-22T08:06:37.097Z,5.87
2023-03-22T08:09:05.447Z,5.87
2023-03-22T08:11:33.278Z,5.67
2023-03-22T08:14:00.718Z,5.57
2023-03-22T08:16:29.103Z,5.30
2023-03-22T08:19:00.144Z,5.37
2023-03-22T08:21:29.541Z,4.13
2023-03-22T08:23:57.811Z,4.50
2023-03-22T08:26:34.197Z,4.13
2023-03-22T08:29:11.868Z,4.00
2023-03-22T08:31:39.276Z,3.80
2023-03-22T08:34:07.108Z,3.50
2023-03-22T08:36:34.468Z,3.80
2023-03-22T08:39:05.041Z,3.23
2023-03-22T08:41:48.760Z,3.33
2023-03-22T08:44:16.488Z,3.27
2023-03-22T08:46:43.728Z,3.00
2023-03-22T08:49:11.252Z,3.00
2023-03-22T08:51:42.412Z,3.47
2023-03-22T08:54:17.621Z,2.70
2023-03-22T08:56:53.851Z,2.63
2023-03-22T08:59:34.706Z,3.13
2023-03-22T09:02:26.218Z,2.60
2023-03-22T09:04:54.975Z,2.60
2023-03-22T09:07:22.493Z,2.20
2023-03-22T09:09:59.061Z,2.10
2023-03-22T09:12:26.562Z,2.60
2023-03-22T09:14:56.470Z,2.33
2023-03-22T09:17:25.786Z,3.00
2023-03-22T09:20:05.870Z,2.37
2023-03-22T09:22:38.665Z,2.40
2023-03-22T09:25:06.459Z,2.10
2023-03-22T09:27:34.345Z,2.27
2023-03-22T09:30:01.622Z,2.43
2023-03-22T09:32:28.855Z,1.70
2023-03-22T09:35:02.030Z,1.83
2023-03-22T09:37:37.705Z,1.67
2023-03-22T09:40:07.651Z,1.50
2023-03-22T09:42:48.267Z,1.60
2023-03-22T09:45:25.005Z,1.73
2023-03-22T09:47:55.047Z,1.70
2023-03-22T09:50:28.618Z,1.57
2023-03-22T09:52:56.975Z,1.60
2023-03-22T09:55:30.823Z,1.50
2023-03-22T09:58:03.509Z,1.50
2023-03-22T10:00:49.058Z,1.30
2023-03-22T10:03:19.628Z,1.30
2023-03-22T10:05:47.255Z,1.00
2023-03-22T10:08:33.491Z,1.10
2023-03-22T10:11:01.390Z,1.10
2023-03-22T10:13:41.247Z,1.10
2023-03-22T10:16:14.250Z,1.07
2023-03-22T10:18:50.292Z,1.17
2023-03-22T10:21:18.606Z,1.10
2023-03-22T10:23:54.014Z,1.27
2023-03-22T10:26:29.367Z,1.00
2023-03-22T10:29:03.966Z,1.40
2023-03-22T10:31:32.237Z,1.30
2023-03-22T10:34:03.100Z,1.20
2023-03-22T10:36:34.804Z,1.20
2023-03-22T10:39:09.317Z,1.33
2023-03-22T10:41:37.090Z,1.33
2023-03-22T10:44:06.140Z,1.33
2023-03-22T10:46:36.316Z,1.37
2023-03-22T10:49:04.416Z,1.53
2023-03-22T10:51:35.231Z,1.40
2023-03-22T10:54:03.417Z,1.40
2023-03-22T10:56:30.630Z,1.30
2023-03-22T10:58:57.973Z,1.33
2023-03-22T11:01:32.802Z,1.20
2023-03-22T11:04:07.891Z,1.67
2023-03-22T11:06:38.596Z,1.40
2023-03-22T11:09:13.971Z,1.23
2023-03-22T11:11:53.381Z,1.20
2023-03-22T11:14:40.809Z,1.03
2023-03-22T11:17:08.300Z,1.20
2023-03-22T11:19:39.901Z,1.20
2023-03-22T11:22:17.222Z,1.20
2023-03-22T11:24:48.347Z,1.93
2023-03-22T11:27:21.396Z,1.60
2023-03-22T11:29:50.433Z,1.20
2023-03-22T11:32:56.662Z,1.30
2023-03-22T11:35:28.365Z,1.40
2023-03-22T11:37:56.779Z,1.40
2023-03-22T11:40:24.026Z,1.30
2023-03-22T11:42:55.969Z,1.17
2023-03-22T11:45:28.711Z,1.10
2023-03-22T11:48:02.358Z,1.10
2023-03-22T11:50:31.631Z,1.40
2023-03-22T11:53:02.213Z,1.20
2023-03-22T11:55:31.679Z,1.13
2023-03-22T11:57:59.233Z,1.10
2023-03-22T12:00:30.864Z,1.07
2023-03-22T12:03:04.049Z,1.10
2023-03-22T12:05:32.894Z,0.90
2023-03-22T12:08:18.953Z,1.20
2023-03-22T12:10:48.687Z,0.93
2023-03-22T12:13:36.810Z,1.13
2023-03-22T12:16:06.044Z,1.03
2023-03-22T12:18:47.847Z,1.10
2023-03-22T12:21:15.858Z,1.03
2023-03-22T12:23:43.398Z,1.00
2023-03-22T12:26:10.653Z,1.30
2023-03-22T12:28:55.106Z,1.20
2023-03-22T12:31:28.276Z,1.10
2023-03-22T12:33:57.356Z,1.00
2023-03-22T12:36:30.071Z,1.03
2023-03-22T12:38:59.311Z,1.00
2023-03-22T12:41:29.415Z,1.50
2023-03-22T12:44:01.099Z,0.83
2023-03-22T12:46:30.504Z,1.00
2023-03-22T12:49:03.912Z,0.90
2023-03-22T12:51:31.827Z,1.20
2023-03-22T12:54:00.336Z,1.30
2023-03-22T12:56:31.616Z,1.30
2023-03-22T12:59:00.927Z,1.20
2023-03-22T13:01:34.033Z,1.27
2023-03-22T13:04:21.256Z,1.10
2023-03-22T13:06:51.388Z,1.07
2023-03-22T13:09:36.077Z,1.10
2023-03-22T13:12:18.787Z,1.27
2023-03-22T13:14:51.955Z,1.10
2023-03-22T13:17:25.312Z,1.20
2023-03-22T13:19:56.047Z,1.00
2023-03-22T13:22:30.728Z,1.33
2023-03-22T13:24:58.734Z,1.13
2023-03-22T13:27:38.037Z,1.20
2023-03-22T13:30:10.481Z,1.20
2023-03-22T13:32:39.552Z,1.03
2023-03-22T13:35:21.734Z,1.27
2023-03-22T13:37:49.606Z,1.20
2023-03-22T13:40:27.756Z,1.33
2023-03-22T13:42:55.333Z,1.30
2023-03-22T13:45:33.462Z,1.47
2023-03-22T13:48:07.673Z,0.97
2023-03-22T13:50:35.243Z,1.10
2023-03-22T13:53:02.467Z,1.40
2023-03-22T13:55:41.797Z,1.40
2023-03-22T13:58:38.545Z,1.30
2023-03-22T14:01:07.246Z,1.40
2023-03-22T14:03:41.997Z,1.17
2023-03-22T14:06:15.974Z,1.50
2023-03-22T14:08:44.540Z,1.70
2023-03-22T14:11:17.772Z,1.30
2023-03-22T14:13:47.503Z,1.10
2023-03-22T14:16:18.498Z,1.30
2023-03-22T14:18:47.965Z,1.37
2023-03-22T14:21:18.778Z,1.50
